sensor_id;sensor_type;location;lat;lon;timestamp;pressure;altitude;pressure_sealevel;temperature
45701;BMP280;36277;32.852;-116.998;2023-03-04T00:02:04;99822.34;;;25.05
45701;BMP280;36277;32.852;-116.998;2023-03-04T00:04:30;99829.34;;;25.08
45701;BMP280;36277;32.852;-116.998;2023-03-04T00:06:56;99828.28;;;25.09
45701;BMP280;36277;32.852;-116.998;2023-03-04T00:09:22;99828.09;;;25.10
45701;BMP280;36277;32.852;-116.998;2023-03-04T00:11:49;99826.81;;;25.13
45701;BMP280;36277;32.852;-116.998;2023-03-04T00:14:15;99825.78;;;25.14
45701;BMP280;36277;32.852;-116.998;2023-03-04T00:16:41;99831.97;;;25.16
45701;BMP280;36277;32.852;-116.998;2023-03-04T00:19:09;99832.59;;;25.18
45701;BMP280;36277;32.852;-116.998;2023-03-04T00:21:36;99826.88;;;25.19
45701;BMP280;36277;32.852;-116.998;2023-03-04T00:24:02;99823.91;;;25.21
45701;BMP280;36277;32.852;-116.998;2023-03-04T00:26:28;99830.06;;;25.23
45701;BMP280;36277;32.852;-116.998;2023-03-04T00:28:54;99837.09;;;25.25
45701;BMP280;36277;32.852;-116.998;2023-03-04T00:31:21;99835.81;;;25.27
45701;BMP280;36277;32.852;-116.998;2023-03-04T00:33:47;99839.44;;;25.28
45701;BMP280;36277;32.852;-116.998;2023-03-04T00:36:13;99836.25;;;25.31
45701;BMP280;36277;32.852;-116.998;2023-03-04T00:38:39;99848.16;;;25.38
45701;BMP280;36277;32.852;-116.998;2023-03-04T00:41:06;99847.78;;;25.47
45701;BMP280;36277;32.852;-116.998;2023-03-04T00:43:32;99853.31;;;25.54
45701;BMP280;36277;32.852;-116.998;2023-03-04T00:45:58;99850.13;;;25.57
45701;BMP280;36277;32.852;-116.998;2023-03-04T00:48:24;99856.50;;;25.57
45701;BMP280;36277;32.852;-116.998;2023-03-04T00:50:51;99853.09;;;25.62
45701;BMP280;36277;32.852;-116.998;2023-03-04T00:53:19;99868.41;;;25.64
45701;BMP280;36277;32.852;-116.998;2023-03-04T00:55:45;99868.63;;;25.63
45701;BMP280;36277;32.852;-116.998;2023-03-04T00:58:12;99865.84;;;25.63
45701;BMP280;36277;32.852;-116.998;2023-03-04T01:00:38;99873.72;;;25.66
45701;BMP280;36277;32.852;-116.998;2023-03-04T01:03:04;99870.75;;;25.61
45701;BMP280;36277;32.852;-116.998;2023-03-04T01:05:30;99868.19;;;25.59
45701;BMP280;36277;32.852;-116.998;2023-03-04T01:07:58;99872.44;;;25.62
45701;BMP280;36277;32.852;-116.998;2023-03-04T01:10:25;99876.06;;;25.62
45701;BMP280;36277;32.852;-116.998;2023-03-04T01:12:51;99874.78;;;25.58
45701;BMP280;36277;32.852;-116.998;2023-03-04T01:15:17;99893.06;;;25.53
45701;BMP280;36277;32.852;-116.998;2023-03-04T01:17:44;99885.19;;;25.50
45701;BMP280;36277;32.852;-116.998;2023-03-04T01:20:11;99888.34;;;25.47
45701;BMP280;36277;32.852;-116.998;2023-03-04T01:22:38;99888.78;;;25.44
45701;BMP280;36277;32.852;-116.998;2023-03-04T01:25:04;99889.00;;;25.42
45701;BMP280;36277;32.852;-116.998;2023-03-04T01:27:31;99883.88;;;25.39
45701;BMP280;36277;32.852;-116.998;2023-03-04T01:29:57;99874.94;;;25.37
45701;BMP280;36277;32.852;-116.998;2023-03-04T01:32:24;99884.28;;;25.36
45701;BMP280;36277;32.852;-116.998;2023-03-04T01:34:50;99891.94;;;25.34
45701;BMP280;36277;32.852;-116.998;2023-03-04T01:37:16;99887.69;;;25.32
45701;BMP280;36277;32.852;-116.998;2023-03-04T01:39:42;99894.47;;;25.29
45701;BMP280;36277;32.852;-116.998;2023-03-04T01:42:19;99894.06;;;25.32
45701;BMP280;36277;32.852;-116.998;2023-03-04T01:44:46;99892.31;;;25.25
45701;BMP280;36277;32.852;-116.998;2023-03-04T01:47:13;99892.53;;;25.24
45701;BMP280;36277;32.852;-116.998;2023-03-04T01:49:40;99901.91;;;25.23
45701;BMP280;36277;32.852;-116.998;2023-03-04T01:52:11;99896.97;;;25.25
45701;BMP280;36277;32.852;-116.998;2023-03-04T01:54:38;99894.44;;;25.17
45701;BMP280;36277;32.852;-116.998;2023-03-04T01:57:21;99900.38;;;25.20
45701;BMP280;36277;32.852;-116.998;2023-03-04T02:02:45;99898.38;;;25.08
45701;BMP280;36277;32.852;-116.998;2023-03-04T02:05:12;99903.06;;;25.07
45701;BMP280;36277;32.852;-116.998;2023-03-04T02:07:38;99894.97;;;25.06
45701;BMP280;36277;32.852;-116.998;2023-03-04T02:10:05;99907.06;;;25.05
45701;BMP280;36277;32.852;-116.998;2023-03-04T02:12:32;99910.25;;;25.02
45701;BMP280;36277;32.852;-116.998;2023-03-04T02:14:58;99919.97;;;24.98
45701;BMP280;36277;32.852;-116.998;2023-03-04T02:17:28;99916.81;;;25.01
45701;BMP280;36277;32.852;-116.998;2023-03-04T02:22:45;99920.59;;;24.93
45701;BMP280;36277;32.852;-116.998;2023-03-04T02:25:22;99913.59;;;24.91
45701;BMP280;36277;32.852;-116.998;2023-03-04T02:27:49;99921.41;;;24.87
45701;BMP280;36277;32.852;-116.998;2023-03-04T02:30:19;99914.00;;;24.88
45701;BMP280;36277;32.852;-116.998;2023-03-04T02:32:45;99915.47;;;24.84
45701;BMP280;36277;32.852;-116.998;2023-03-04T02:35:19;99910.59;;;24.86
45701;BMP280;36277;32.852;-116.998;2023-03-04T02:37:46;99917.56;;;24.82
45701;BMP280;36277;32.852;-116.998;2023-03-04T02:40:29;99915.47;;;24.84
45701;BMP280;36277;32.852;-116.998;2023-03-04T02:43:00;99919.69;;;24.80
45701;BMP280;36277;32.852;-116.998;2023-03-04T02:45:47;99914.16;;;24.80
45701;BMP280;36277;32.852;-116.998;2023-03-04T02:48:18;99912.84;;;24.76
45701;BMP280;36277;32.852;-116.998;2023-03-04T02:50:50;99910.09;;;24.76
45701;BMP280;36277;32.852;-116.998;2023-03-04T02:53:17;99903.31;;;24.72
45701;BMP280;36277;32.852;-116.998;2023-03-04T02:55:45;99907.13;;;24.71
45701;BMP280;36277;32.852;-116.998;2023-03-04T02:58:12;99909.88;;;24.71
45701;BMP280;36277;32.852;-116.998;2023-03-04T03:00:39;99906.47;;;24.69
45701;BMP280;36277;32.852;-116.998;2023-03-04T03:03:06;99901.13;;;24.67
45701;BMP280;36277;32.852;-116.998;2023-03-04T03:05:33;99903.88;;;24.67
45701;BMP280;36277;32.852;-116.998;2023-03-04T03:08:00;99897.06;;;24.63
45701;BMP280;36277;32.852;-116.998;2023-03-04T03:10:26;99901.09;;;24.61
45701;BMP280;36277;32.852;-116.998;2023-03-04T03:12:52;99903.19;;;24.59
45701;BMP280;36277;32.852;-116.998;2023-03-04T03:15:19;99897.25;;;24.55
45701;BMP280;36277;32.852;-116.998;2023-03-04T03:17:45;99904.88;;;24.53
45701;BMP280;36277;32.852;-116.998;2023-03-04T03:20:13;99899.53;;;24.52
45701;BMP280;36277;32.852;-116.998;2023-03-04T03:22:40;99905.47;;;24.49
45701;BMP280;36277;32.852;-116.998;2023-03-04T03:25:07;99911.38;;;24.46
45701;BMP280;36277;32.852;-116.998;2023-03-04T03:27:34;99906.91;;;24.45
45701;BMP280;36277;32.852;-116.998;2023-03-04T03:30:00;99911.13;;;24.41
45701;BMP280;36277;32.852;-116.998;2023-03-04T03:32:26;99914.94;;;24.40
45701;BMP280;36277;32.852;-116.998;2023-03-04T03:34:53;99919.78;;;24.38
45701;BMP280;36277;32.852;-116.998;2023-03-04T03:37:19;99923.16;;;24.33
45701;BMP280;36277;32.852;-116.998;2023-03-04T03:39:45;99922.50;;;24.31
45701;BMP280;36277;32.852;-116.998;2023-03-04T03:42:11;99924.78;;;24.28
45701;BMP280;36277;32.852;-116.998;2023-03-04T03:44:38;99928.59;;;24.27
45701;BMP280;36277;32.852;-116.998;2023-03-04T03:47:04;99925.84;;;24.27
45701;BMP280;36277;32.852;-116.998;2023-03-04T03:49:30;99925.19;;;24.25
45701;BMP280;36277;32.852;-116.998;2023-03-04T03:51:56;99926.22;;;24.24
45701;BMP280;36277;32.852;-116.998;2023-03-04T03:54:23;99933.84;;;24.22
45701;BMP280;36277;32.852;-116.998;2023-03-04T03:56:49;99941.28;;;24.21
45701;BMP280;36277;32.852;-116.998;2023-03-04T03:59:15;99947.03;;;24.20
45701;BMP280;36277;32.852;-116.998;2023-03-04T04:01:41;99948.06;;;24.19
45701;BMP280;36277;32.852;-116.998;2023-03-04T04:04:07;99958.63;;;24.15
45701;BMP280;36277;32.852;-116.998;2023-03-04T04:06:34;99958.19;;;24.12
45701;BMP280;36277;32.852;-116.998;2023-03-04T04:09:00;99950.63;;;24.00
45701;BMP280;36277;32.852;-116.998;2023-03-04T04:11:26;99952.59;;;24.06
45701;BMP280;36277;32.852;-116.998;2023-03-04T04:13:52;99955.81;;;24.09
45701;BMP280;36277;32.852;-116.998;2023-03-04T04:16:19;99943.06;;;24.08
45701;BMP280;36277;32.852;-116.998;2023-03-04T04:18:45;99946.88;;;24.07
45701;BMP280;36277;32.852;-116.998;2023-03-04T04:21:11;99950.25;;;24.03
45701;BMP280;36277;32.852;-116.998;2023-03-04T04:23:38;99956.41;;;24.05
45701;BMP280;36277;32.852;-116.998;2023-03-04T04:26:04;99961.44;;;24.01
45701;BMP280;36277;32.852;-116.998;2023-03-04T04:28:31;99964.88;;;24.03
45701;BMP280;36277;32.852;-116.998;2023-03-04T04:30:57;99958.50;;;24.03
45701;BMP280;36277;32.852;-116.998;2023-03-04T04:33:24;99961.44;;;24.01
45701;BMP280;36277;32.852;-116.998;2023-03-04T04:35:50;99966.31;;;23.99
45701;BMP280;36277;32.852;-116.998;2023-03-04T04:38:17;99965.25;;;24.00
45701;BMP280;36277;32.852;-116.998;2023-03-04T04:40:43;99965.25;;;24.00
45701;BMP280;36277;32.852;-116.998;2023-03-04T04:43:09;99970.31;;;23.97
45701;BMP280;36277;32.852;-116.998;2023-03-04T04:45:35;99969.44;;;23.96
45701;BMP280;36277;32.852;-116.998;2023-03-04T04:48:02;99973.91;;;23.97
45701;BMP280;36277;32.852;-116.998;2023-03-04T04:50:28;99979.84;;;23.94
45701;BMP280;36277;32.852;-116.998;2023-03-04T04:52:54;99986.41;;;23.93
45701;BMP280;36277;32.852;-116.998;2023-03-04T04:55:20;99985.41;;;23.80
45701;BMP280;36277;32.852;-116.998;2023-03-04T04:57:47;99982.72;;;23.86
45701;BMP280;36277;32.852;-116.998;2023-03-04T05:00:13;99982.28;;;23.83
45701;BMP280;36277;32.852;-116.998;2023-03-04T05:02:40;99982.06;;;23.84
45701;BMP280;36277;32.852;-116.998;2023-03-04T05:05:06;99981.88;;;23.71
45701;BMP280;36277;32.852;-116.998;2023-03-04T05:07:33;99979.59;;;23.75
45701;BMP280;36277;32.852;-116.998;2023-03-04T05:09:59;99984.44;;;23.73
45701;BMP280;36277;32.852;-116.998;2023-03-04T05:12:26;99979.09;;;23.71
45701;BMP280;36277;32.852;-116.998;2023-03-04T05:14:52;99981.41;;;23.68
45701;BMP280;36277;32.852;-116.998;2023-03-04T05:17:18;99980.75;;;23.66
45701;BMP280;36277;32.852;-116.998;2023-03-04T05:19:44;99988.06;;;23.59
45701;BMP280;36277;32.852;-116.998;2023-03-04T05:22:10;99988.94;;;23.59
45701;BMP280;36277;32.852;-116.998;2023-03-04T05:24:37;99995.50;;;23.58
45701;BMP280;36277;32.852;-116.998;2023-03-04T05:27:03;99985.91;;;23.54
45701;BMP280;36277;32.852;-116.998;2023-03-04T05:29:29;99990.63;;;23.39
45701;BMP280;36277;32.852;-116.998;2023-03-04T05:31:56;99991.72;;;23.45
45701;BMP280;36277;32.852;-116.998;2023-03-04T05:34:22;99998.06;;;23.45
45701;BMP280;36277;32.852;-116.998;2023-03-04T05:36:49;99994.69;;;23.43
45701;BMP280;36277;32.852;-116.998;2023-03-04T05:39:15;99989.56;;;23.40
45701;BMP280;36277;32.852;-116.998;2023-03-04T05:41:41;99992.69;;;23.37
45701;BMP280;36277;32.852;-116.998;2023-03-04T05:44:07;99980.34;;;23.33
45701;BMP280;36277;32.852;-116.998;2023-03-04T05:46:34;99979.69;;;23.31
45701;BMP280;36277;32.852;-116.998;2023-03-04T05:49:00;99980.06;;;23.28
45701;BMP280;36277;32.852;-116.998;2023-03-04T05:51:26;99976.00;;;23.24
45701;BMP280;36277;32.852;-116.998;2023-03-04T05:53:52;99982.53;;;23.23
45701;BMP280;36277;32.852;-116.998;2023-03-04T05:56:19;99987.22;;;23.23
45701;BMP280;36277;32.852;-116.998;2023-03-04T05:58:46;99979.13;;;23.21
45701;BMP280;36277;32.852;-116.998;2023-03-04T06:01:15;99981.41;;;23.18
45701;BMP280;36277;32.852;-116.998;2023-03-04T06:03:41;99983.50;;;23.16
45701;BMP280;36277;32.852;-116.998;2023-03-04T06:06:08;99983.50;;;23.16
45701;BMP280;36277;32.852;-116.998;2023-03-04T06:08:34;99983.72;;;23.14
45701;BMP280;36277;32.852;-116.998;2023-03-04T06:11:00;99996.16;;;23.10
45701;BMP280;36277;32.852;-116.998;2023-03-04T06:13:27;99981.50;;;23.10
45701;BMP280;36277;32.852;-116.998;2023-03-04T06:15:55;99995.09;;;23.11
45701;BMP280;36277;32.852;-116.998;2023-03-04T06:18:22;99994.13;;;23.04
45701;BMP280;36277;32.852;-116.998;2023-03-04T06:20:49;99990.91;;;23.01
45701;BMP280;36277;32.852;-116.998;2023-03-04T06:23:15;99995.38;;;23.02
45701;BMP280;36277;32.852;-116.998;2023-03-04T06:25:42;99986.81;;;22.97
45701;BMP280;36277;32.852;-116.998;2023-03-04T06:28:08;99982.94;;;22.92
45701;BMP280;36277;32.852;-116.998;2023-03-04T06:30:34;99983.09;;;22.90
45701;BMP280;36277;32.852;-116.998;2023-03-04T06:33:00;99987.09;;;22.88
45701;BMP280;36277;32.852;-116.998;2023-03-04T06:35:27;99982.63;;;22.87
45701;BMP280;36277;32.852;-116.998;2023-03-04T06:37:53;99981.97;;;22.85
45701;BMP280;36277;32.852;-116.998;2023-03-04T06:40:19;99985.09;;;22.82
45701;BMP280;36277;32.852;-116.998;2023-03-04T06:42:45;99977.88;;;22.81
45701;BMP280;36277;32.852;-116.998;2023-03-04T06:45:12;99981.88;;;22.78
45701;BMP280;36277;32.852;-116.998;2023-03-04T06:47:38;99975.88;;;22.75
45701;BMP280;36277;32.852;-116.998;2023-03-04T06:50:05;99981.75;;;22.72
45701;BMP280;36277;32.852;-116.998;2023-03-04T06:52:31;99968.19;;;22.70
45701;BMP280;36277;32.852;-116.998;2023-03-04T06:54:58;99983.84;;;22.70
45701;BMP280;36277;32.852;-116.998;2023-03-04T06:57:24;99992.50;;;22.67
45701;BMP280;36277;32.852;-116.998;2023-03-04T06:59:50;99998.00;;;22.67
45701;BMP280;36277;32.852;-116.998;2023-03-04T07:02:16;99987.84;;;22.67
45701;BMP280;36277;32.852;-116.998;2023-03-04T07:04:43;99981.66;;;22.65
45701;BMP280;36277;32.852;-116.998;2023-03-04T07:07:10;99992.88;;;22.64
45701;BMP280;36277;32.852;-116.998;2023-03-04T07:09:36;99985.81;;;22.61
45701;BMP280;36277;32.852;-116.998;2023-03-04T07:12:03;99982.41;;;22.59
45701;BMP280;36277;32.852;-116.998;2023-03-04T07:14:29;99989.16;;;22.57
45701;BMP280;36277;32.852;-116.998;2023-03-04T07:16:56;99982.31;;;22.53
45701;BMP280;36277;32.852;-116.998;2023-03-04T07:19:22;99986.09;;;22.52
45701;BMP280;36277;32.852;-116.998;2023-03-04T07:21:48;99998.13;;;22.51
45701;BMP280;36277;32.852;-116.998;2023-03-04T07:24:15;99996.13;;;22.45
45701;BMP280;36277;32.852;-116.998;2023-03-04T07:26:41;99994.41;;;22.44
45701;BMP280;36277;32.852;-116.998;2023-03-04T07:29:07;99998.59;;;22.40
45701;BMP280;36277;32.852;-116.998;2023-03-04T07:31:34;99997.94;;;22.38
45701;BMP280;36277;32.852;-116.998;2023-03-04T07:34:06;99995.19;;;22.38
45701;BMP280;36277;32.852;-116.998;2023-03-04T07:36:35;99990.53;;;22.38
45701;BMP280;36277;32.852;-116.998;2023-03-04T07:39:03;99990.06;;;22.35
45701;BMP280;36277;32.852;-116.998;2023-03-04T07:41:29;99993.13;;;22.32
45701;BMP280;36277;32.852;-116.998;2023-03-04T07:43:57;99986.97;;;22.30
45701;BMP280;36277;32.852;-116.998;2023-03-04T07:46:24;99995.59;;;22.27
45701;BMP280;36277;32.852;-116.998;2023-03-04T07:48:50;99991.13;;;22.26
45701;BMP280;36277;32.852;-116.998;2023-03-04T07:51:19;99995.94;;;22.24
45701;BMP280;36277;32.852;-116.998;2023-03-04T07:53:48;99994.91;;;22.25
45701;BMP280;36277;32.852;-116.998;2023-03-04T07:56:18;99987.03;;;22.22
45701;BMP280;36277;32.852;-116.998;2023-03-04T07:58:45;99982.47;;;22.14
45701;BMP280;36277;32.852;-116.998;2023-03-04T08:01:15;99992.63;;;22.14
45701;BMP280;36277;32.852;-116.998;2023-03-04T08:03:42;99997.44;;;22.12
45701;BMP280;36277;32.852;-116.998;2023-03-04T08:06:11;100001.22;;;22.11
45701;BMP280;36277;32.852;-116.998;2023-03-04T08:08:38;99998.47;;;22.11
45701;BMP280;36277;32.852;-116.998;2023-03-04T08:11:12;99996.56;;;22.11
45701;BMP280;36277;32.852;-116.998;2023-03-04T08:13:39;99996.09;;;22.08
45701;BMP280;36277;32.852;-116.998;2023-03-04T08:16:06;99995.59;;;22.04
45701;BMP280;36277;32.852;-116.998;2023-03-04T08:18:32;99998.34;;;22.04
45701;BMP280;36277;32.852;-116.998;2023-03-04T08:20:59;99993.16;;;22.09
45701;BMP280;36277;32.852;-116.998;2023-03-04T08:23:25;100003.41;;;22.15
45701;BMP280;36277;32.852;-116.998;2023-03-04T08:25:51;100000.78;;;22.22
45701;BMP280;36277;32.852;-116.998;2023-03-04T08:28:18;100003.09;;;22.33
45701;BMP280;36277;32.852;-116.998;2023-03-04T08:30:44;99998.19;;;22.43
45701;BMP280;36277;32.852;-116.998;2023-03-04T08:33:10;100008.97;;;22.52
45701;BMP280;36277;32.852;-116.998;2023-03-04T08:35:38;100007.66;;;22.63
45701;BMP280;36277;32.852;-116.998;2023-03-04T08:38:05;100006.50;;;22.72
45701;BMP280;36277;32.852;-116.998;2023-03-04T08:40:32;100009.19;;;22.80
45701;BMP280;36277;32.852;-116.998;2023-03-04T08:42:58;100003.31;;;22.83
45701;BMP280;36277;32.852;-116.998;2023-03-04T08:45:25;99995.06;;;22.83
45701;BMP280;36277;32.852;-116.998;2023-03-04T08:47:51;100001.81;;;22.80
45701;BMP280;36277;32.852;-116.998;2023-03-04T08:50:17;100000.94;;;22.80
45701;BMP280;36277;32.852;-116.998;2023-03-04T08:52:47;100005.09;;;22.76
45701;BMP280;36277;32.852;-116.998;2023-03-04T08:55:13;99997.44;;;22.71
45701;BMP280;36277;32.852;-116.998;2023-03-04T08:57:39;99984.03;;;22.68
45701;BMP280;36277;32.852;-116.998;2023-03-04T09:00:06;99985.09;;;22.67
45701;BMP280;36277;32.852;-116.998;2023-03-04T09:02:33;99992.00;;;22.63
45701;BMP280;36277;32.852;-116.998;2023-03-04T09:04:59;99992.19;;;22.62
45701;BMP280;36277;32.852;-116.998;2023-03-04T09:07:25;99988.09;;;22.58
45701;BMP280;36277;32.852;-116.998;2023-03-04T09:09:51;99994.84;;;22.55
45701;BMP280;36277;32.852;-116.998;2023-03-04T09:12:18;99985.06;;;22.53
45701;BMP280;36277;32.852;-116.998;2023-03-04T09:14:44;99980.28;;;22.47
45701;BMP280;36277;32.852;-116.998;2023-03-04T09:17:10;99989.78;;;22.44
45701;BMP280;36277;32.852;-116.998;2023-03-04T09:19:36;99994.81;;;22.41
45701;BMP280;36277;32.852;-116.998;2023-03-04T09:22:03;99995.19;;;22.38
45701;BMP280;36277;32.852;-116.998;2023-03-04T09:24:29;99987.44;;;22.33
45701;BMP280;36277;32.852;-116.998;2023-03-04T09:26:55;99984.00;;;22.31
45701;BMP280;36277;32.852;-116.998;2023-03-04T09:29:22;99989.03;;;22.28
45701;BMP280;36277;32.852;-116.998;2023-03-04T09:31:48;100001.06;;;22.27
45701;BMP280;36277;32.852;-116.998;2023-03-04T09:34:14;99992.16;;;22.25
45701;BMP280;36277;32.852;-116.998;2023-03-04T09:36:40;99977.06;;;22.21
45701;BMP280;36277;32.852;-116.998;2023-03-04T09:39:07;99977.44;;;22.18
45701;BMP280;36277;32.852;-116.998;2023-03-04T09:44:03;99970.25;;;22.17
45701;BMP280;36277;32.852;-116.998;2023-03-04T09:46:37;99969.59;;;22.15
45701;BMP280;36277;32.852;-116.998;2023-03-04T09:49:04;99968.59;;;22.08
45701;BMP280;36277;32.852;-116.998;2023-03-04T09:54:10;99966.59;;;22.02
45701;BMP280;36277;32.852;-116.998;2023-03-04T09:56:41;99963.00;;;22.01
45701;BMP280;36277;32.852;-116.998;2023-03-04T09:59:29;99959.03;;;22.04
45701;BMP280;36277;32.852;-116.998;2023-03-04T10:02:00;99947.41;;;21.94
45701;BMP280;36277;32.852;-116.998;2023-03-04T10:04:58;99944.31;;;21.97
45701;BMP280;36277;32.852;-116.998;2023-03-04T10:07:31;99943.34;;;21.90
45701;BMP280;36277;32.852;-116.998;2023-03-04T10:10:29;99936.56;;;22.00
45701;BMP280;36277;32.852;-116.998;2023-03-04T10:12:57;99929.81;;;22.03
45701;BMP280;36277;32.852;-116.998;2023-03-04T10:15:42;99935.38;;;22.17
45701;BMP280;36277;32.852;-116.998;2023-03-04T10:18:21;99939.09;;;22.24
45701;BMP280;36277;32.852;-116.998;2023-03-04T10:20:51;99929.56;;;22.35
45701;BMP280;36277;32.852;-116.998;2023-03-04T10:23:22;99931.84;;;22.46
45701;BMP280;36277;32.852;-116.998;2023-03-04T10:25:49;99920.09;;;22.52
45701;BMP280;36277;32.852;-116.998;2023-03-04T10:28:27;99918.59;;;22.64
45701;BMP280;36277;32.852;-116.998;2023-03-04T10:31:11;99918.69;;;22.70
45701;BMP280;36277;32.852;-116.998;2023-03-04T10:33:40;99920.69;;;22.76
45701;BMP280;36277;32.852;-116.998;2023-03-04T10:36:50;99915.94;;;22.85
45701;BMP280;36277;32.852;-116.998;2023-03-04T10:39:12;99910.13;;;22.80
45701;BMP280;36277;32.852;-116.998;2023-03-04T10:41:44;99906.72;;;22.78
45701;BMP280;36277;32.852;-116.998;2023-03-04T10:44:16;99908.34;;;22.72
45701;BMP280;36277;32.852;-116.998;2023-03-04T10:46:47;99903.88;;;22.71
45701;BMP280;36277;32.852;-116.998;2023-03-04T10:49:18;99897.91;;;22.68
45701;BMP280;36277;32.852;-116.998;2023-03-04T10:51:48;99895.53;;;22.65
45701;BMP280;36277;32.852;-116.998;2023-03-04T10:54:38;99905.88;;;22.63
45701;BMP280;36277;32.852;-116.998;2023-03-04T10:57:25;99899.03;;;22.59
45701;BMP280;36277;32.852;-116.998;2023-03-04T11:00:24;99881.59;;;22.52
45701;BMP280;36277;32.852;-116.998;2023-03-04T11:02:48;99886.13;;;22.45
45701;BMP280;36277;32.852;-116.998;2023-03-04T11:05:21;99881.66;;;22.44
45701;BMP280;36277;32.852;-116.998;2023-03-04T11:07:57;99878.09;;;22.43
45701;BMP280;36277;32.852;-116.998;2023-03-04T11:15:59;99878.38;;;22.34
45701;BMP280;36277;32.852;-116.998;2023-03-04T11:18:51;99882.50;;;22.30
45701;BMP280;36277;32.852;-116.998;2023-03-04T11:21:30;99883.06;;;22.25
45701;BMP280;36277;32.852;-116.998;2023-03-04T11:24:13;99883.44;;;22.22
45701;BMP280;36277;32.852;-116.998;2023-03-04T11:27:04;99883.59;;;22.21
45701;BMP280;36277;32.852;-116.998;2023-03-04T11:29:37;99879.94;;;22.14
45701;BMP280;36277;32.852;-116.998;2023-03-04T11:32:29;99882.66;;;22.14
45701;BMP280;36277;32.852;-116.998;2023-03-04T11:35:05;99877.91;;;22.08
45701;BMP280;36277;32.852;-116.998;2023-03-04T11:37:40;99883.56;;;22.06
45701;BMP280;36277;32.852;-116.998;2023-03-04T11:40:40;99891.56;;;22.01
45701;BMP280;36277;32.852;-116.998;2023-03-04T11:48:49;99898.72;;;21.88
45701;BMP280;36277;32.852;-116.998;2023-03-04T11:51:31;99899.81;;;21.79
45701;BMP280;36277;32.852;-116.998;2023-03-04T11:56:52;99904.69;;;21.91
45701;BMP280;36277;32.852;-116.998;2023-03-04T12:02:21;99904.06;;;22.04
45701;BMP280;36277;32.852;-116.998;2023-03-04T12:05:25;99912.03;;;22.13
45701;BMP280;36277;32.852;-116.998;2023-03-04T12:08:01;99918.66;;;22.19
45701;BMP280;36277;32.852;-116.998;2023-03-04T12:13:36;99919.53;;;22.42
45701;BMP280;36277;32.852;-116.998;2023-03-04T12:16:40;99918.75;;;22.48
45701;BMP280;36277;32.852;-116.998;2023-03-04T12:30:36;99926.56;;;22.88
45701;BMP280;36277;32.852;-116.998;2023-03-04T12:33:30;99925.88;;;22.86
45701;BMP280;36277;32.852;-116.998;2023-03-04T12:38:44;99930.91;;;22.82
45701;BMP280;36277;32.852;-116.998;2023-03-04T12:41:38;99942.31;;;22.79
45701;BMP280;36277;32.852;-116.998;2023-03-04T12:55:11;99915.72;;;22.57
45701;BMP280;36277;32.852;-116.998;2023-03-04T12:57:40;99924.25;;;22.48
45701;BMP280;36277;32.852;-116.998;2023-03-04T13:05:35;99930.41;;;22.35
45701;BMP280;36277;32.852;-116.998;2023-03-04T13:08:36;99930.59;;;22.34
45701;BMP280;36277;32.852;-116.998;2023-03-04T13:14:07;99932.72;;;22.24
45701;BMP280;36277;32.852;-116.998;2023-03-04T13:16:49;99935.56;;;22.16
45701;BMP280;36277;32.852;-116.998;2023-03-04T13:25:01;99950.97;;;22.02
45701;BMP280;36277;32.852;-116.998;2023-03-04T13:28:01;99961.09;;;22.02
45701;BMP280;36277;32.852;-116.998;2023-03-04T13:43:42;99968.13;;;21.82
45701;BMP280;36277;32.852;-116.998;2023-03-04T13:48:59;99958.34;;;21.80
45701;BMP280;36277;32.852;-116.998;2023-03-04T13:51:38;99961.41;;;21.85
45701;BMP280;36277;32.852;-116.998;2023-03-04T13:56:47;99961.47;;;21.99
45701;BMP280;36277;32.852;-116.998;2023-03-04T13:59:34;99969.81;;;22.05
45701;BMP280;36277;32.852;-116.998;2023-03-04T14:02:15;99980.38;;;22.16
45701;BMP280;36277;32.852;-116.998;2023-03-04T14:04:46;99970.53;;;22.22
45701;BMP280;36277;32.852;-116.998;2023-03-04T14:12:50;99966.19;;;22.50
45701;BMP280;36277;32.852;-116.998;2023-03-04T14:15:28;99980.91;;;22.57
45701;BMP280;36277;32.852;-116.998;2023-03-04T14:18:03;99986.31;;;22.65
45701;BMP280;36277;32.852;-116.998;2023-03-04T14:20:34;99994.84;;;22.70
45701;BMP280;36277;32.852;-116.998;2023-03-04T14:23:04;99999.13;;;22.72
45701;BMP280;36277;32.852;-116.998;2023-03-04T14:25:47;99995.25;;;22.67
45701;BMP280;36277;32.852;-116.998;2023-03-04T14:28:16;100018.28;;;22.66
45701;BMP280;36277;32.852;-116.998;2023-03-04T14:30:51;100020.53;;;22.62
45701;BMP280;36277;32.852;-116.998;2023-03-04T14:33:24;100027.84;;;22.55
45701;BMP280;36277;32.852;-116.998;2023-03-04T14:35:54;100028.22;;;22.52
45701;BMP280;36277;32.852;-116.998;2023-03-04T14:40:54;100032.19;;;22.50
45701;BMP280;36277;32.852;-116.998;2023-03-04T14:43:22;100055.78;;;22.44
45701;BMP280;36277;32.852;-116.998;2023-03-04T14:45:52;100088.59;;;22.46
45701;BMP280;36277;32.852;-116.998;2023-03-04T14:48:23;100095.03;;;22.30
45701;BMP280;36277;32.852;-116.998;2023-03-04T14:50:52;100102.78;;;22.35
45701;BMP280;36277;32.852;-116.998;2023-03-04T14:53:21;100105.34;;;22.36
45701;BMP280;36277;32.852;-116.998;2023-03-04T14:56:05;100108.75;;;22.38
45701;BMP280;36277;32.852;-116.998;2023-03-04T14:58:37;100123.06;;;22.34
45701;BMP280;36277;32.852;-116.998;2023-03-04T15:01:12;100123.75;;;22.28
45701;BMP280;36277;32.852;-116.998;2023-03-04T15:03:41;100122.59;;;22.22
45701;BMP280;36277;32.852;-116.998;2023-03-04T15:06:18;100138.22;;;22.22
45701;BMP280;36277;32.852;-116.998;2023-03-04T15:08:46;100143.13;;;22.12
45701;BMP280;36277;32.852;-116.998;2023-03-04T15:11:48;100143.28;;;22.10
45701;BMP280;36277;32.852;-116.998;2023-03-04T15:17:29;100160.78;;;21.87
45701;BMP280;36277;32.852;-116.998;2023-03-04T15:22:28;100164.19;;;21.89
45701;BMP280;36277;32.852;-116.998;2023-03-04T15:24:55;100175.22;;;21.81
45701;BMP280;36277;32.852;-116.998;2023-03-04T15:27:22;100172.59;;;21.88
45701;BMP280;36277;32.852;-116.998;2023-03-04T15:29:50;100160.56;;;21.96